sensor_id;sensor_type;location;lat;lon;timestamp;P1;P2;P0
82821;PMS5003;72574;46.842;-71.246;2023-10-09T00:00:31;3.48;3.48;2.76
82821;PMS5003;72574;46.842;-71.246;2023-10-09T00:02:27;2.48;2.19;1.62
82821;PMS5003;72574;46.842;-71.246;2023-10-09T00:04:52;3;3;2
82821;PMS5003;72574;46.842;-71.246;2023-10-09T00:07:17;2;2;1
82821;PMS5003;72574;46.842;-71.246;2023-10-09T00:09:46;2.9;2.9;2.62
82821;PMS5003;72574;46.842;-71.246;2023-10-09T00:12:10;2.62;2.62;2.38
82821;PMS5003;72574;46.842;-71.246;2023-10-09T00:14:34;2.55;2.55;2
82821;PMS5003;72574;46.842;-71.246;2023-10-09T00:17:02;3.1;3.1;2.67
82821;PMS5003;72574;46.842;-71.246;2023-10-09T00:19:25;3.67;3.67;2.38
82821;PMS5003;72574;46.842;-71.246;2023-10-09T00:21:52;3.24;3.24;2.24
82821;PMS5003;72574;46.842;-71.246;2023-10-09T00:24:18;2.67;2.67;2.29
82821;PMS5003;72574;46.842;-71.246;2023-10-09T00:26:43;3.14;2.33;1.33
82821;PMS5003;72574;46.842;-71.246;2023-10-09T00:29:07;3.62;3.38;3
82821;PMS5003;72574;46.842;-71.246;2023-10-09T00:31:33;2.91;2.14;1.77
82821;PMS5003;72574;46.842;-71.246;2023-10-09T00:33:59;3;3;2.24
82821;PMS5003;72574;46.842;-71.246;2023-10-09T00:36:27;2.52;2.52;1.81
82821;PMS5003;72574;46.842;-71.246;2023-10-09T00:38:54;3.38;3;2
82821;PMS5003;72574;46.842;-71.246;2023-10-09T00:41:14;3.48;3.38;3.19
82821;PMS5003;72574;46.842;-71.246;2023-10-09T00:43:41;4.67;4.67;3.76
82821;PMS5003;72574;46.842;-71.246;2023-10-09T00:46:07;2.9;2.9;1.67
82821;PMS5003;72574;46.842;-71.246;2023-10-09T00:48:31;2;2;1.68
82821;PMS5003;72574;46.842;-71.246;2023-10-09T00:50:59;2.05;1.52;1.05
82821;PMS5003;72574;46.842;-71.246;2023-10-09T00:53:30;2.67;2.67;2
82821;PMS5003;72574;46.842;-71.246;2023-10-09T00:55:49;3.81;3.38;2.52
82821;PMS5003;72574;46.842;-71.246;2023-10-09T00:58:13;3;3;2
82821;PMS5003;72574;46.842;-71.246;2023-10-09T01:00:46;2.24;2.24;1.81
82821;PMS5003;72574;46.842;-71.246;2023-10-09T01:03:34;3;3;2
82821;PMS5003;72574;46.842;-71.246;2023-10-09T01:05:32;1.82;1.68;1
82821;PMS5003;72574;46.842;-71.246;2023-10-09T01:07:58;2.5;2.5;1
82821;PMS5003;72574;46.842;-71.246;2023-10-09T01:10:22;1.05;1;1
82821;PMS5003;72574;46.842;-71.246;2023-10-09T01:12:48;3.24;3.24;2.95
82821;PMS5003;72574;46.842;-71.246;2023-10-09T01:15:13;2;2;2
82821;PMS5003;72574;46.842;-71.246;2023-10-09T01:17:40;3.1;2.9;1.76
82821;PMS5003;72574;46.842;-71.246;2023-10-09T01:20:06;2.9;2.9;2
82821;PMS5003;72574;46.842;-71.246;2023-10-09T01:22:32;2.91;2.73;2
82821;PMS5003;72574;46.842;-71.246;2023-10-09T01:24:59;2;2;1.48
82821;PMS5003;72574;46.842;-71.246;2023-10-09T01:27:32;3.48;2.52;1.67
82821;PMS5003;72574;46.842;-71.246;2023-10-09T01:29:48;2.95;2.1;1
82821;PMS5003;72574;46.842;-71.246;2023-10-09T01:32:17;1;1;1
82821;PMS5003;72574;46.842;-71.246;2023-10-09T01:34:42;3.38;3.24;2
82821;PMS5003;72574;46.842;-71.246;2023-10-09T01:37:05;1;1;0.81
82821;PMS5003;72574;46.842;-71.246;2023-10-09T01:39:31;2;2;2
82821;PMS5003;72574;46.842;-71.246;2023-10-09T01:41:59;1.81;1.52;1
82821;PMS5003;72574;46.842;-71.246;2023-10-09T01:44:23;1;1;1
82821;PMS5003;72574;46.842;-71.246;2023-10-09T01:46:46;1.24;1.24;1
82821;PMS5003;72574;46.842;-71.246;2023-10-09T01:49:21;1;1;1
82821;PMS5003;72574;46.842;-71.246;2023-10-09T01:51:38;2.1;1.62;1
82821;PMS5003;72574;46.842;-71.246;2023-10-09T01:54:02;1.24;1;1
82821;PMS5003;72574;46.842;-71.246;2023-10-09T01:56:29;1.95;1;1
82821;PMS5003;72574;46.842;-71.246;2023-10-09T01:58:57;1;1;1
82821;PMS5003;72574;46.842;-71.246;2023-10-09T02:01:21;2.24;1.9;1
82821;PMS5003;72574;46.842;-71.246;2023-10-09T02:03:46;3;3;1.81
82821;PMS5003;72574;46.842;-71.246;2023-10-09T02:06:38;3.48;2.76;1.76
82821;PMS5003;72574;46.842;-71.246;2023-10-09T02:08:36;3.14;2.76;2.38
82821;PMS5003;72574;46.842;-71.246;2023-10-09T02:11:03;3;2.52;2
82821;PMS5003;72574;46.842;-71.246;2023-10-09T02:13:32;2.55;2.55;2
82821;PMS5003;72574;46.842;-71.246;2023-10-09T02:15:59;2.76;2.76;1.62
82821;PMS5003;72574;46.842;-71.246;2023-10-09T02:18:40;2.24;2.24;1.95
82821;PMS5003;72574;46.842;-71.246;2023-10-09T02:20:47;2;2;1
82821;PMS5003;72574;46.842;-71.246;2023-10-09T02:23:16;1.81;1.24;0.9
82821;PMS5003;72574;46.842;-71.246;2023-10-09T02:25:44;1.95;1.24;1
82821;PMS5003;72574;46.842;-71.246;2023-10-09T02:28:00;2.1;2.1;1
82821;PMS5003;72574;46.842;-71.246;2023-10-09T02:30:29;1.23;1;1
82821;PMS5003;72574;46.842;-71.246;2023-10-09T02:33:07;1.1;1.1;0.95
82821;PMS5003;72574;46.842;-71.246;2023-10-09T02:35:31;3;2.1;1.62
82821;PMS5003;72574;46.842;-71.246;2023-10-09T02:37:44;3.24;3.1;1.81
82821;PMS5003;72574;46.842;-71.246;2023-10-09T02:40:15;2.23;2.23;1.14
82821;PMS5003;72574;46.842;-71.246;2023-10-09T02:42:35;2.33;2;1.62
82821;PMS5003;72574;46.842;-71.246;2023-10-09T02:45:01;3.1;3;1.52
82821;PMS5003;72574;46.842;-71.246;2023-10-09T02:47:29;2.27;2;1
82821;PMS5003;72574;46.842;-71.246;2023-10-09T02:49:50;2;2;1.38
82821;PMS5003;72574;46.842;-71.246;2023-10-09T02:52:19;1;1;0.9
82821;PMS5003;72574;46.842;-71.246;2023-10-09T02:54:46;3.19;2;1
82821;PMS5003;72574;46.842;-71.246;2023-10-09T02:57:08;2.67;2.62;2
82821;PMS5003;72574;46.842;-71.246;2023-10-09T02:59:34;2.52;2.52;1
82821;PMS5003;72574;46.842;-71.246;2023-10-09T03:01:57;2;2;1.19
82821;PMS5003;72574;46.842;-71.246;2023-10-09T03:04:23;2.14;2.14;2
82821;PMS5003;72574;46.842;-71.246;2023-10-09T03:06:51;2.48;2.48;1.62
82821;PMS5003;72574;46.842;-71.246;2023-10-09T03:09:18;2.24;2.24;1.71
82821;PMS5003;72574;46.842;-71.246;2023-10-09T03:11:40;2.1;2.1;1.81
82821;PMS5003;72574;46.842;-71.246;2023-10-09T03:14:05;3;2.24;1
82821;PMS5003;72574;46.842;-71.246;2023-10-09T03:16:31;1.67;1.67;1
82821;PMS5003;72574;46.842;-71.246;2023-10-09T03:18:57;2;2;1.67
82821;PMS5003;72574;46.842;-71.246;2023-10-09T03:21:21;1.55;1.55;1.41
82821;PMS5003;72574;46.842;-71.246;2023-10-09T03:23:47;1.38;1.38;1.38
82821;PMS5003;72574;46.842;-71.246;2023-10-09T03:26:13;1.24;1.24;1
82821;PMS5003;72574;46.842;-71.246;2023-10-09T03:28:39;1.9;1.9;1.1
82821;PMS5003;72574;46.842;-71.246;2023-10-09T03:31:06;0.48;0.48;0.19
82821;PMS5003;72574;46.842;-71.246;2023-10-09T03:33:28;1.62;1.62;1
82821;PMS5003;72574;46.842;-71.246;2023-10-09T03:35:55;2.76;2.67;1.24
82821;PMS5003;72574;46.842;-71.246;2023-10-09T03:38:19;2.41;2.09;1.41
82821;PMS5003;72574;46.842;-71.246;2023-10-09T03:40:45;1.33;1.33;1.33
82821;PMS5003;72574;46.842;-71.246;2023-10-09T03:43:12;2.19;1.76;1
82821;PMS5003;72574;46.842;-71.246;2023-10-09T03:45:39;1;1;1
82821;PMS5003;72574;46.842;-71.246;2023-10-09T03:48:03;2.67;2.67;1.38
82821;PMS5003;72574;46.842;-71.246;2023-10-09T03:50:35;2;2;1
82821;PMS5003;72574;46.842;-71.246;2023-10-09T03:52:53;1.62;1.38;1
82821;PMS5003;72574;46.842;-71.246;2023-10-09T03:55:19;1.55;1.55;0.68
82821;PMS5003;72574;46.842;-71.246;2023-10-09T03:57:45;1.76;1.62;1
82821;PMS5003;72574;46.842;-71.246;2023-10-09T04:00:14;1.76;1.67;1.38
82821;PMS5003;72574;46.842;-71.246;2023-10-09T04:02:34;2.24;2.24;1.67
82821;PMS5003;72574;46.842;-71.246;2023-10-09T04:04:59;1.62;1.62;1.24
82821;PMS5003;72574;46.842;-71.246;2023-10-09T04:07:24;2.38;2.24;2.24
82821;PMS5003;72574;46.842;-71.246;2023-10-09T04:09:51;1.76;1.38;1.1
82821;PMS5003;72574;46.842;-71.246;2023-10-09T04:12:25;1.95;1.95;1.68
82821;PMS5003;72574;46.842;-71.246;2023-10-09T04:14:42;1.95;1.67;1
82821;PMS5003;72574;46.842;-71.246;2023-10-09T04:17:09;3.09;2.18;1.5
82821;PMS5003;72574;46.842;-71.246;2023-10-09T04:19:32;2.81;2.52;2
82821;PMS5003;72574;46.842;-71.246;2023-10-09T04:21:58;2.05;2.05;1.67
82821;PMS5003;72574;46.842;-71.246;2023-10-09T04:24:41;2.05;2;2
82821;PMS5003;72574;46.842;-71.246;2023-10-09T04:26:49;2.24;2.24;1.67
82821;PMS5003;72574;46.842;-71.246;2023-10-09T04:29:17;1.27;1.27;0.64
82821;PMS5003;72574;46.842;-71.246;2023-10-09T04:31:41;2.24;2.24;1
82821;PMS5003;72574;46.842;-71.246;2023-10-09T04:34:23;1.95;1.95;1.24
82821;PMS5003;72574;46.842;-71.246;2023-10-09T04:36:32;2.05;2.05;1.1
82821;PMS5003;72574;46.842;-71.246;2023-10-09T04:39:16;1.57;1.57;1
82821;PMS5003;72574;46.842;-71.246;2023-10-09T04:41:33;2.81;2.81;2.38
82821;PMS5003;72574;46.842;-71.246;2023-10-09T04:43:48;2.05;2.05;2
82821;PMS5003;72574;46.842;-71.246;2023-10-09T04:46:13;1;1;0.64
82821;PMS5003;72574;46.842;-71.246;2023-10-09T04:48:39;1.38;1.19;1
82821;PMS5003;72574;46.842;-71.246;2023-10-09T04:51:59;1.81;1.48;1.05
82821;PMS5003;72574;46.842;-71.246;2023-10-09T04:53:29;2.38;2;1.1
82821;PMS5003;72574;46.842;-71.246;2023-10-09T04:55:55;2.38;2.38;1.67
82821;PMS5003;72574;46.842;-71.246;2023-10-09T04:58:24;2.1;2.1;1.76
82821;PMS5003;72574;46.842;-71.246;2023-10-09T05:01:12;1;1;0.95
82821;PMS5003;72574;46.842;-71.246;2023-10-09T05:03:12;1.91;1.91;1
82821;PMS5003;72574;46.842;-71.246;2023-10-09T05:05:59;2;2;1.24
82821;PMS5003;72574;46.842;-71.246;2023-10-09T05:08:03;2.1;1.62;1.24
82821;PMS5003;72574;46.842;-71.246;2023-10-09T05:10:27;2;2;1.9
82821;PMS5003;72574;46.842;-71.246;2023-10-09T05:12:57;1.95;1.95;1.24
82821;PMS5003;72574;46.842;-71.246;2023-10-09T05:15:19;1;1;1
82821;PMS5003;72574;46.842;-71.246;2023-10-09T05:17:45;1.33;1.33;1
82821;PMS5003;72574;46.842;-71.246;2023-10-09T05:21:05;1.64;1.27;0.91
82821;PMS5003;72574;46.842;-71.246;2023-10-09T05:22:39;2.24;1.81;1.67
82821;PMS5003;72574;46.842;-71.246;2023-10-09T05:25:00;1.67;1.67;1.52
82821;PMS5003;72574;46.842;-71.246;2023-10-09T05:27:27;1.67;1.67;1
82821;PMS5003;72574;46.842;-71.246;2023-10-09T05:30:13;1.9;1.9;1
82821;PMS5003;72574;46.842;-71.246;2023-10-09T05:32:15;2;2;1.81
82821;PMS5003;72574;46.842;-71.246;2023-10-09T05:34:57;1.77;1.77;1.77
82821;PMS5003;72574;46.842;-71.246;2023-10-09T05:37:18;1.45;1.45;1
82821;PMS5003;72574;46.842;-71.246;2023-10-09T05:39:41;2;2;1.81
82821;PMS5003;72574;46.842;-71.246;2023-10-09T05:42:06;1.48;1.48;1
82821;PMS5003;72574;46.842;-71.246;2023-10-09T05:46:10;2.19;1.9;1.67
82821;PMS5003;72574;46.842;-71.246;2023-10-09T05:47:23;2;2;1.05
82821;PMS5003;72574;46.842;-71.246;2023-10-09T05:49:20;2.1;2.1;1.05
82821;PMS5003;72574;46.842;-71.246;2023-10-09T05:52:29;2;2;1.5
82821;PMS5003;72574;46.842;-71.246;2023-10-09T05:54:54;1.33;1.33;0.9
82821;PMS5003;72574;46.842;-71.246;2023-10-09T06:02:34;2.33;1.81;1.38
82821;PMS5003;72574;46.842;-71.246;2023-10-09T06:04:16;2;2;1
82821;PMS5003;72574;46.842;-71.246;2023-10-09T06:04:49;1.76;1.76;1
82821;PMS5003;72574;46.842;-71.246;2023-10-09T06:05:42;1.24;1.24;1
82821;PMS5003;72574;46.842;-71.246;2023-10-09T06:06:18;1.9;1.81;1
82821;PMS5003;72574;46.842;-71.246;2023-10-09T06:09:11;2.27;2;1.77
82821;PMS5003;72574;46.842;-71.246;2023-10-09T06:11:39;1.9;1.1;1
82821;PMS5003;72574;46.842;-71.246;2023-10-09T06:13:47;1.95;1.95;1.95
82821;PMS5003;72574;46.842;-71.246;2023-10-09T06:17:01;1.86;1.86;1.76
82821;PMS5003;72574;46.842;-71.246;2023-10-09T06:18:32;1.1;1.1;0.52
82821;PMS5003;72574;46.842;-71.246;2023-10-09T06:21:39;2;1.95;1
82821;PMS5003;72574;46.842;-71.246;2023-10-09T06:23:50;1.76;1.76;1.33
82821;PMS5003;72574;46.842;-71.246;2023-10-09T06:25:42;1.27;1.27;0.95
82821;PMS5003;72574;46.842;-71.246;2023-10-09T06:28:09;1.62;1.62;1.24
82821;PMS5003;72574;46.842;-71.246;2023-10-09T06:30:34;1;1;0.76
82821;PMS5003;72574;46.842;-71.246;2023-10-09T06:33:00;2.52;2.52;2
82821;PMS5003;72574;46.842;-71.246;2023-10-09T06:35:26;1.24;1.24;1
82821;PMS5003;72574;46.842;-71.246;2023-10-09T06:38:11;2.24;2;1
82821;PMS5003;72574;46.842;-71.246;2023-10-09T06:41:38;1.24;1.24;1
82821;PMS5003;72574;46.842;-71.246;2023-10-09T06:42:51;2.14;2;1
82821;PMS5003;72574;46.842;-71.246;2023-10-09T06:45:07;1.24;1.24;0.9
82821;PMS5003;72574;46.842;-71.246;2023-10-09T06:47:33;1.67;1.67;1
82821;PMS5003;72574;46.842;-71.246;2023-10-09T06:50:24;0.9;0.9;0.67
82821;PMS5003;72574;46.842;-71.246;2023-10-09T06:52:27;0.38;0.38;0
82821;PMS5003;72574;46.842;-71.246;2023-10-09T06:54:47;0.81;0.81;0.81
82821;PMS5003;72574;46.842;-71.246;2023-10-09T06:58:10;1;1;1
82821;PMS5003;72574;46.842;-71.246;2023-10-09T06:59:42;1.32;1.09;0.77
82821;PMS5003;72574;46.842;-71.246;2023-10-09T07:02:25;1.1;1.1;0.52
82821;PMS5003;72574;46.842;-71.246;2023-10-09T07:04:32;1;1;1
82821;PMS5003;72574;46.842;-71.246;2023-10-09T07:06:59;0.81;0.81;0
82821;PMS5003;72574;46.842;-71.246;2023-10-09T07:09:22;1;1;0.9
82821;PMS5003;72574;46.842;-71.246;2023-10-09T07:12:00;1.24;1;0.38
82821;PMS5003;72574;46.842;-71.246;2023-10-09T07:14:12;0.62;0.62;0
82821;PMS5003;72574;46.842;-71.246;2023-10-09T07:16:38;1.41;1;0.55
82821;PMS5003;72574;46.842;-71.246;2023-10-09T07:19:04;1.67;1.67;1
82821;PMS5003;72574;46.842;-71.246;2023-10-09T07:21:29;1.24;1;0.67
82821;PMS5003;72574;46.842;-71.246;2023-10-09T07:23:53;1.52;0.9;0.9
82821;PMS5003;72574;46.842;-71.246;2023-10-09T07:26:23;1;1;0.9
82821;PMS5003;72574;46.842;-71.246;2023-10-09T07:28:46;2.1;1.67;1
82821;PMS5003;72574;46.842;-71.246;2023-10-09T07:31:15;1.1;1.1;1
82821;PMS5003;72574;46.842;-71.246;2023-10-09T07:33:51;1.68;1.68;0.68
82821;PMS5003;72574;46.842;-71.246;2023-10-09T07:36:00;0.95;0.95;0.95
82821;PMS5003;72574;46.842;-71.246;2023-10-09T07:38:26;0.62;0.62;0
82821;PMS5003;72574;46.842;-71.246;2023-10-09T07:41:00;1.05;1.05;1
82821;PMS5003;72574;46.842;-71.246;2023-10-09T07:43:18;1;1;0.67
82821;PMS5003;72574;46.842;-71.246;2023-10-09T07:46:53;1;1;1
82821;PMS5003;72574;46.842;-71.246;2023-10-09T07:48:09;1;1;0.9
82821;PMS5003;72574;46.842;-71.246;2023-10-09T07:50:36;1;1;1
82821;PMS5003;72574;46.842;-71.246;2023-10-09T07:52:59;1.76;1.76;1
82821;PMS5003;72574;46.842;-71.246;2023-10-09T07:55:30;1;1;0.81
82821;PMS5003;72574;46.842;-71.246;2023-10-09T07:57:48;0.95;0.95;0.81
82821;PMS5003;72574;46.842;-71.246;2023-10-09T08:00:36;1;1;0
82821;PMS5003;72574;46.842;-71.246;2023-10-09T08:02:42;1;0.1;0
82821;PMS5003;72574;46.842;-71.246;2023-10-09T08:05:07;0.24;0.24;0.1
82821;PMS5003;72574;46.842;-71.246;2023-10-09T08:07:32;1;1;0.91
82821;PMS5003;72574;46.842;-71.246;2023-10-09T08:09:57;1;1;1
82821;PMS5003;72574;46.842;-71.246;2023-10-09T08:12:59;1.9;1.9;0.9
82821;PMS5003;72574;46.842;-71.246;2023-10-09T08:14:48;0.81;0.81;0
82821;PMS5003;72574;46.842;-71.246;2023-10-09T08:17:15;1.76;1;1
82821;PMS5003;72574;46.842;-71.246;2023-10-09T08:19:40;5.48;5;3.62
82821;PMS5003;72574;46.842;-71.246;2023-10-09T08:22:43;5.9;5.14;3.67
82821;PMS5003;72574;46.842;-71.246;2023-10-09T08:24:42;1.09;1.09;1
82821;PMS5003;72574;46.842;-71.246;2023-10-09T08:27:47;1;1;1
82821;PMS5003;72574;46.842;-71.246;2023-10-09T08:29:20;2.1;2.1;1.67
82821;PMS5003;72574;46.842;-71.246;2023-10-09T08:31:45;2.62;2.62;1.76
82821;PMS5003;72574;46.842;-71.246;2023-10-09T08:34:11;1.33;1.33;1.05
82821;PMS5003;72574;46.842;-71.246;2023-10-09T08:36:36;2.33;2.33;2
82821;PMS5003;72574;46.842;-71.246;2023-10-09T08:39:03;3.67;2.95;2.1
82821;PMS5003;72574;46.842;-71.246;2023-10-09T08:41:30;2;2;1.91
82821;PMS5003;72574;46.842;-71.246;2023-10-09T08:43:54;3;3;1.48
82821;PMS5003;72574;46.842;-71.246;2023-10-09T08:46:19;0.95;0.95;0.52
82821;PMS5003;72574;46.842;-71.246;2023-10-09T08:48:45;1.19;1.19;1
82821;PMS5003;72574;46.842;-71.246;2023-10-09T08:51:08;2.38;2.38;1.67
82821;PMS5003;72574;46.842;-71.246;2023-10-09T08:53:34;5.4;3;1.95
82821;PMS5003;72574;46.842;-71.246;2023-10-09T08:56:01;1.62;1.62;1
82821;PMS5003;72574;46.842;-71.246;2023-10-09T08:58:27;2.05;1.09;1
82821;PMS5003;72574;46.842;-71.246;2023-10-09T09:12:54;2.95;1.67;1
82821;PMS5003;72574;46.842;-71.246;2023-10-09T09:13:19;0.68;0.68;0.55
82821;PMS5003;72574;46.842;-71.246;2023-10-09T09:13:35;1;1;0.45
82821;PMS5003;72574;46.842;-71.246;2023-10-09T09:14:07;1.55;1;0.68
82821;PMS5003;72574;46.842;-71.246;2023-10-09T09:14:39;1.18;1.18;1
82821;PMS5003;72574;46.842;-71.246;2023-10-09T09:14:45;1;1;1
82821;PMS5003;72574;46.842;-71.246;2023-10-09T09:17:05;1;0.76;0.76
82821;PMS5003;72574;46.842;-71.246;2023-10-09T09:19:31;1.95;1.95;1
82821;PMS5003;72574;46.842;-71.246;2023-10-09T09:21:56;1.95;1.95;1
82821;PMS5003;72574;46.842;-71.246;2023-10-09T09:24:30;1.38;1.38;0.9
82821;PMS5003;72574;46.842;-71.246;2023-10-09T09:26:45;2.9;2.81;1.24
82821;PMS5003;72574;46.842;-71.246;2023-10-09T09:29:11;2.33;2;1.48
82821;PMS5003;72574;46.842;-71.246;2023-10-09T09:31:38;2;2;1
82821;PMS5003;72574;46.842;-71.246;2023-10-09T09:34:04;1.71;1.43;0.81
82821;PMS5003;72574;46.842;-71.246;2023-10-09T09:36:27;2;2;1
82821;PMS5003;72574;46.842;-71.246;2023-10-09T09:38:54;0.9;0.9;0.9
82821;PMS5003;72574;46.842;-71.246;2023-10-09T09:41:19;1;1;0
82821;PMS5003;72574;46.842;-71.246;2023-10-09T09:43:44;1.24;1.24;0.9
82821;PMS5003;72574;46.842;-71.246;2023-10-09T09:46:07;2.67;1.76;1
82821;PMS5003;72574;46.842;-71.246;2023-10-09T09:48:37;1;1;0.68
82821;PMS5003;72574;46.842;-71.246;2023-10-09T09:50:59;1;1;0.81
82821;PMS5003;72574;46.842;-71.246;2023-10-09T09:53:26;1.81;1.81;1
82821;PMS5003;72574;46.842;-71.246;2023-10-09T09:55:51;1.55;1.55;1
82821;PMS5003;72574;46.842;-71.246;2023-10-09T09:58:17;1.48;1.48;1.24
82821;PMS5003;72574;46.842;-71.246;2023-10-09T10:00:43;1;1;1
82821;PMS5003;72574;46.842;-71.246;2023-10-09T10:03:07;1.6;1.6;1
82821;PMS5003;72574;46.842;-71.246;2023-10-09T10:05:33;2.62;2.19;2
82821;PMS5003;72574;46.842;-71.246;2023-10-09T10:07:59;2;2;1.25
82821;PMS5003;72574;46.842;-71.246;2023-10-09T10:10:38;3.1;3.1;2.1
82821;PMS5003;72574;46.842;-71.246;2023-10-09T10:13:03;4.71;3.86;3
82821;PMS5003;72574;46.842;-71.246;2023-10-09T10:15:14;4.35;4.35;3
82821;PMS5003;72574;46.842;-71.246;2023-10-09T10:17:56;4.05;4.05;3
82821;PMS5003;72574;46.842;-71.246;2023-10-09T10:20:27;5.4;4.95;3.7
82821;PMS5003;72574;46.842;-71.246;2023-10-09T10:22:34;5.1;5.1;3.5
82821;PMS5003;72574;46.842;-71.246;2023-10-09T10:25:00;4.15;4;3
82821;PMS5003;72574;46.842;-71.246;2023-10-09T10:27:25;3.95;3.95;3
82821;PMS5003;72574;46.842;-71.246;2023-10-09T10:30:21;4.1;4.1;3.25
82821;PMS5003;72574;46.842;-71.246;2023-10-09T10:32:16;4.25;4.25;3.55
82821;PMS5003;72574;46.842;-71.246;2023-10-09T10:34:51;5.15;4.75;3.75
82821;PMS5003;72574;46.842;-71.246;2023-10-09T10:37:07;3.4;3.1;2.35
82821;PMS5003;72574;46.842;-71.246;2023-10-09T10:39:32;4.8;4.8;3.1
82821;PMS5003;72574;46.842;-71.246;2023-10-09T10:41:57;4.32;4.32;3.74
82821;PMS5003;72574;46.842;-71.246;2023-10-09T10:44:36;4;4;3
82821;PMS5003;72574;46.842;-71.246;2023-10-09T10:46:48;6.55;6.15;4.35
82821;PMS5003;72574;46.842;-71.246;2023-10-09T10:49:13;6;6;5
82821;PMS5003;72574;46.842;-71.246;2023-10-09T10:51:40;5.95;5.47;5
82821;PMS5003;72574;46.842;-71.246;2023-10-09T10:54:04;6.42;5.58;4.68
82821;PMS5003;72574;46.842;-71.246;2023-10-09T10:56:31;6;6;4.45
82821;PMS5003;72574;46.842;-71.246;2023-10-09T10:59:12;4.25;4.25;3.55
82821;PMS5003;72574;46.842;-71.246;2023-10-09T11:01:21;6.28;5;4
82821;PMS5003;72574;46.842;-71.246;2023-10-09T11:03:47;5.42;5.42;3.95
82821;PMS5003;72574;46.842;-71.246;2023-10-09T11:06:13;4.8;4.1;3.55
82821;PMS5003;72574;46.842;-71.246;2023-10-09T11:08:37;5.05;4.9;3.4
82821;PMS5003;72574;46.842;-71.246;2023-10-09T11:11:11;5.9;5.9;4.65
82821;PMS5003;72574;46.842;-71.246;2023-10-09T11:13:55;8.62;7.19;4
82821;PMS5003;72574;46.842;-71.246;2023-10-09T11:15:56;3.6;3.3;3
82821;PMS5003;72574;46.842;-71.246;2023-10-09T11:18:20;3.7;3.7;2.95
82821;PMS5003;72574;46.842;-71.246;2023-10-09T11:20:48;4.5;4.5;3.6
82821;PMS5003;72574;46.842;-71.246;2023-10-09T11:23:15;3.5;3.5;2.15
82821;PMS5003;72574;46.842;-71.246;2023-10-09T11:25:37;3.05;3.05;2.05
82821;PMS5003;72574;46.842;-71.246;2023-10-09T11:28:02;3.9;3.81;3.33
82821;PMS5003;72574;46.842;-71.246;2023-10-09T11:30:32;3.55;3.55;2.64
82821;PMS5003;72574;46.842;-71.246;2023-10-09T11:33:03;4;4;3
82821;PMS5003;72574;46.842;-71.246;2023-10-09T11:35:20;3.71;3.62;3
82821;PMS5003;72574;46.842;-71.246;2023-10-09T11:37:45;4.62;3.81;2.95
82821;PMS5003;72574;46.842;-71.246;2023-10-09T11:40:42;2;2;1.38
82821;PMS5003;72574;46.842;-71.246;2023-10-09T11:42:35;3.05;3.05;1.67
82821;PMS5003;72574;46.842;-71.246;2023-10-09T11:45:02;2.48;2.48;2
82821;PMS5003;72574;46.842;-71.246;2023-10-09T11:47:33;2.64;2.27;2
82821;PMS5003;72574;46.842;-71.246;2023-10-09T11:49:54;2.76;2.76;2
82821;PMS5003;72574;46.842;-71.246;2023-10-09T11:53:08;3;3;2
82821;PMS5003;72574;46.842;-71.246;2023-10-09T11:54:43;2.67;2.67;2
82821;PMS5003;72574;46.842;-71.246;2023-10-09T11:57:07;2.76;2.76;2
82821;PMS5003;72574;46.842;-71.246;2023-10-09T11:59:35;2.24;2.1;1.48
82821;PMS5003;72574;46.842;-71.246;2023-10-09T12:01:58;2.19;2.19;1.1
82821;PMS5003;72574;46.842;-71.246;2023-10-09T12:04:24;2.32;2.32;1.32
82821;PMS5003;72574;46.842;-71.246;2023-10-09T12:06:50;1.81;1.81;1.38
82821;PMS5003;72574;46.842;-71.246;2023-10-09T12:09:16;1.86;1.33;0.95
82821;PMS5003;72574;46.842;-71.246;2023-10-09T12:11:41;1.95;1.95;1.24
82821;PMS5003;72574;46.842;-71.246;2023-10-09T12:14:06;1.95;1.95;1
82821;PMS5003;72574;46.842;-71.246;2023-10-09T12:16:30;2.19;1.38;1.1
82821;PMS5003;72574;46.842;-71.246;2023-10-09T12:18:57;1.95;1.38;0.95
82821;PMS5003;72574;46.842;-71.246;2023-10-09T12:21:22;2.55;2.09;1.73
82821;PMS5003;72574;46.842;-71.246;2023-10-09T12:23:49;2;1.95;1.1
82821;PMS5003;72574;46.842;-71.246;2023-10-09T12:26:13;2;2;1.24
82821;PMS5003;72574;46.842;-71.246;2023-10-09T12:28:40;1;1;0.9
82821;PMS5003;72574;46.842;-71.246;2023-10-09T12:31:02;1.52;1.33;1
82821;PMS5003;72574;46.842;-71.246;2023-10-09T12:33:28;2;2;1.52
82821;PMS5003;72574;46.842;-71.246;2023-10-09T12:36:01;1.95;1;1
82821;PMS5003;72574;46.842;-71.246;2023-10-09T12:38:26;1.68;1.59;0.64
82821;PMS5003;72574;46.842;-71.246;2023-10-09T12:40:53;1;1;0.81
82821;PMS5003;72574;46.842;-71.246;2023-10-09T12:43:17;1.19;1.19;0.9
82821;PMS5003;72574;46.842;-71.246;2023-10-09T12:45:44;1.67;1.67;1
82821;PMS5003;72574;46.842;-71.246;2023-10-09T12:48:08;2;1.52;1
82821;PMS5003;72574;46.842;-71.246;2023-10-09T12:50:33;1;1;0.81
82821;PMS5003;72574;46.842;-71.246;2023-10-09T12:52:58;1;1;0.55
82821;PMS5003;72574;46.842;-71.246;2023-10-09T12:55:24;1;1;0.24
82821;PMS5003;72574;46.842;-71.246;2023-10-09T12:57:51;0.67;0.67;0
82821;PMS5003;72574;46.842;-71.246;2023-10-09T13:00:14;1;1;0.95
82821;PMS5003;72574;46.842;-71.246;2023-10-09T13:02:40;0.95;0.95;0.67
82821;PMS5003;72574;46.842;-71.246;2023-10-09T13:05:07;1;1;1
82821;PMS5003;72574;46.842;-71.246;2023-10-09T13:07:32;1;1;0.52
82821;PMS5003;72574;46.842;-71.246;2023-10-09T13:09:57;1.09;1;0.32
82821;PMS5003;72574;46.842;-71.246;2023-10-09T13:12:24;0.38;0.38;0.24
82821;PMS5003;72574;46.842;-71.246;2023-10-09T13:14:49;1;1;0.1
82821;PMS5003;72574;46.842;-71.246;2023-10-09T13:17:14;0.19;0.19;0
82821;PMS5003;72574;46.842;-71.246;2023-10-09T13:19:38;0.24;0.24;0
82821;PMS5003;72574;46.842;-71.246;2023-10-09T13:22:03;0.81;0.81;0.24
82821;PMS5003;72574;46.842;-71.246;2023-10-09T13:24:31;0.81;0.81;0.1
82821;PMS5003;72574;46.842;-71.246;2023-10-09T13:26:57;0.18;0;0
82821;PMS5003;72574;46.842;-71.246;2023-10-09T13:29:21;0.95;0.95;0.67
82821;PMS5003;72574;46.842;-71.246;2023-10-09T13:31:47;0.76;0.76;0.62
82821;PMS5003;72574;46.842;-71.246;2023-10-09T13:34:12;0.52;0.52;0
82821;PMS5003;72574;46.842;-71.246;2023-10-09T13:36:37;0.76;0;0
82821;PMS5003;72574;46.842;-71.246;2023-10-09T13:39:02;1.24;1.24;1
82821;PMS5003;72574;46.842;-71.246;2023-10-09T13:41:29;2;1.48;1
82821;PMS5003;72574;46.842;-71.246;2023-10-09T13:43:53;0.45;0.45;0
82821;PMS5003;72574;46.842;-71.246;2023-10-09T13:46:21;1;1;0.9
82821;PMS5003;72574;46.842;-71.246;2023-10-09T13:48:45;3.52;3.52;3
82821;PMS5003;72574;46.842;-71.246;2023-10-09T13:51:09;3.05;3;2
82821;PMS5003;72574;46.842;-71.246;2023-10-09T13:53:37;2.62;2.33;1.95
82821;PMS5003;72574;46.842;-71.246;2023-10-09T13:56:01;3.9;3.24;2.67
82821;PMS5003;72574;46.842;-71.246;2023-10-09T13:58:27;3.71;3.62;3.05
82821;PMS5003;72574;46.842;-71.246;2023-10-09T14:00:52;2.86;2.86;2
82821;PMS5003;72574;46.842;-71.246;2023-10-09T14:03:17;1;0.62;0.1
82821;PMS5003;72574;46.842;-71.246;2023-10-09T14:05:42;1;1;1
82821;PMS5003;72574;46.842;-71.246;2023-10-09T14:08:09;2.19;2.19;1.9
82821;PMS5003;72574;46.842;-71.246;2023-10-09T14:10:32;1.76;1.48;0.62
82821;PMS5003;72574;46.842;-71.246;2023-10-09T14:12:57;2;2;1.33
82821;PMS5003;72574;46.842;-71.246;2023-10-09T14:15:25;2.1;2.1;1.24
82821;PMS5003;72574;46.842;-71.246;2023-10-09T14:17:51;2;2;1.64
82821;PMS5003;72574;46.842;-71.246;2023-10-09T14:20:16;1.38;1.38;1
82821;PMS5003;72574;46.842;-71.246;2023-10-09T14:22:42;1.95;1.24;0.9
82821;PMS5003;72574;46.842;-71.246;2023-10-09T14:25:07;1.33;1.33;0.86
82821;PMS5003;72574;46.842;-71.246;2023-10-09T14:27:32;4.24;4.24;3.76